KONA/ONA METAR and TAF weather

Enter ICAO airport designator
Station Type Date Time Source
KONA METAR 2024/02/26 17:15 UTC NOAA

KONA 261715Z AUTO 14011KT 10SM CLR 13/M03 A2957 RMK AO2


Station Type Date Time Source
KONA Decoded METAR 2024/02/26 17:15 UTC NOAA

Winona, Winona Municipal Airport-Max Conrad Field, MN, United States (KONA) 44-05N 091-42W
Feb 26, 2024 - 12:15 PM EST / 2024.02.26 1715 UTC
Wind: from the SE (140 degrees) at 13 MPH (11 KT):0
Visibility: 10 mile(s):0
Sky conditions: clear
Temperature: 55 F (13 C)
Dew Point: 26 F (-3 C)
Relative Humidity: 32%
Pressure (altimeter): 29.57 in. Hg (1001 hPa)
ob: KONA 261715Z AUTO 14011KT 10SM CLR 13/M03 A2957 RMK AO2
cycle: 17

Station Type Date Time Source
KONA TAF UTC NOAA

Error!

Example: see airport list